createdAt,value
2022-12-04T00:01:29.336Z,98612.67
2022-12-04T00:03:59.948Z,98612.11
2022-12-04T00:06:29.058Z,98610.24
2022-12-04T00:08:57.525Z,98608.83
2022-12-04T00:11:31.049Z,98609.02
2022-12-04T00:14:06.542Z,98611.11
2022-12-04T00:16:35.447Z,98616.33
2022-12-04T00:19:04.556Z,98615.85
2022-12-04T00:21:32.564Z,98613.02
2022-12-04T00:24:00.505Z,98612.10
2022-12-04T00:26:31.169Z,98611.02
2022-12-04T00:29:00.469Z,98608.27
2022-12-04T00:31:30.659Z,98609.35
2022-12-04T00:34:00.496Z,98608.44
2022-12-04T00:36:30.154Z,98611.07
2022-12-04T00:39:00.760Z,98607.02
2022-12-04T00:41:31.090Z,98609.24
2022-12-04T00:44:00.913Z,98610.88
2022-12-04T00:46:29.871Z,98619.56
2022-12-04T00:48:59.693Z,98619.58
2022-12-04T00:51:28.224Z,98618.18
2022-12-04T00:53:56.136Z,98610.54
2022-12-04T00:56:27.078Z,98610.13
2022-12-04T00:58:58.196Z,98607.23
2022-12-04T01:01:30.856Z,98605.41
2022-12-04T01:03:59.045Z,98606.30
2022-12-04T01:06:33.675Z,98607.02
2022-12-04T01:09:04.223Z,98606.75
2022-12-04T01:11:33.460Z,98607.14
2022-12-04T01:14:01.842Z,98606.79
2022-12-04T01:16:33.922Z,98608.42
2022-12-04T01:19:02.871Z,98609.42
2022-12-04T01:21:31.325Z,98603.40
2022-12-04T01:23:59.960Z,98605.23
2022-12-04T01:26:28.706Z,98599.04
2022-12-04T01:28:57.849Z,98596.02
2022-12-04T01:31:25.973Z,98593.92
2022-12-04T01:33:54.451Z,98592.13
2022-12-04T01:36:25.946Z,98592.65
2022-12-04T01:38:54.604Z,98593.81
2022-12-04T01:41:29.004Z,98594.14
2022-12-04T01:44:08.377Z,98593.04
2022-12-04T01:46:40.637Z,98592.71
2022-12-04T01:49:13.207Z,98586.69
2022-12-04T01:51:46.150Z,98584.26
2022-12-04T01:54:37.701Z,98579.94
2022-12-04T01:57:16.223Z,98578.43
2022-12-04T01:59:54.718Z,98576.05
2022-12-04T02:02:29.581Z,98579.52
2022-12-04T02:04:57.783Z,98575.23
2022-12-04T02:07:26.185Z,98573.22
2022-12-04T02:09:56.386Z,98575.87
2022-12-04T02:12:32.962Z,98578.38
2022-12-04T02:15:35.199Z,98581.91
2022-12-04T02:18:11.793Z,98577.17
2022-12-04T02:21:00.623Z,98577.39
2022-12-04T02:23:53.272Z,98576.21
2022-12-04T02:26:27.181Z,98576.96
2022-12-04T02:29:08.021Z,98574.33
2022-12-04T02:31:57.256Z,98576.61
2022-12-04T02:34:43.533Z,98575.16
2022-12-04T02:37:17.219Z,98580.06
2022-12-04T02:39:51.132Z,98576.55
2022-12-04T02:42:37.122Z,98572.13
2022-12-04T02:45:20.511Z,98571.20
2022-12-04T02:47:48.419Z,98577.34
2022-12-04T02:50:19.668Z,98573.56
2022-12-04T02:52:50.224Z,98571.83
2022-12-04T02:55:26.600Z,98573.67
2022-12-04T02:57:57.882Z,98575.40
2022-12-04T03:00:26.686Z,98574.70
2022-12-04T03:03:02.680Z,98573.14
2022-12-04T03:05:41.767Z,98571.06
2022-12-04T03:08:15.971Z,98565.52
2022-12-04T03:10:49.611Z,98557.55
2022-12-04T03:13:27.310Z,98555.77
2022-12-04T03:16:13.199Z,98559.05
2022-12-04T03:18:54.790Z,98570.40
2022-12-04T03:21:32.546Z,98574.91
2022-12-04T03:24:24.893Z,98573.07
2022-12-04T03:27:17.199Z,98572.38
2022-12-04T03:30:14.333Z,98572.74
2022-12-04T03:33:06.431Z,98567.39
2022-12-04T03:35:44.918Z,98570.21
2022-12-04T03:38:22.317Z,98576.64
2022-12-04T03:41:02.027Z,98574.08
2022-12-04T03:43:33.578Z,98574.30
2022-12-04T03:46:11.406Z,98576.73
2022-12-04T03:48:48.413Z,98568.27
2022-12-04T03:51:33.022Z,98569.40
2022-12-04T03:54:12.335Z,98561.48
2022-12-04T03:56:51.598Z,98556.13
2022-12-04T03:59:27.362Z,98553.31
2022-12-04T04:02:00.461Z,98551.86
2022-12-04T04:04:34.924Z,98555.36
2022-12-04T04:07:20.421Z,98552.65
2022-12-04T04:09:50.778Z,98552.26
2022-12-04T04:12:22.703Z,98555.48
2022-12-04T04:15:13.727Z,98558.20
2022-12-04T04:18:04.036Z,98558.95
2022-12-04T04:21:01.848Z,98555.89
2022-12-04T04:23:54.078Z,98555.73
2022-12-04T04:26:24.199Z,98554.15
2022-12-04T04:28:52.190Z,98561.01
2022-12-04T04:31:32.286Z,98558.80
2022-12-04T04:34:13.591Z,98553.11
2022-12-04T04:36:50.764Z,98546.73
2022-12-04T04:39:35.537Z,98548.70
2022-12-04T04:42:24.560Z,98552.80
2022-12-04T04:45:08.570Z,98556.77
2022-12-04T04:47:49.154Z,98553.70
2022-12-04T04:50:19.090Z,98552.02
2022-12-04T04:52:53.273Z,98555.09
2022-12-04T04:55:24.668Z,98555.29
2022-12-04T04:57:52.735Z,98557.29
2022-12-04T05:00:22.874Z,98558.13
2022-12-04T05:02:50.857Z,98559.22
2022-12-04T05:05:18.906Z,98559.66
2022-12-04T05:07:47.006Z,98557.98
2022-12-04T05:10:14.994Z,98549.36
2022-12-04T05:12:42.891Z,98548.13
2022-12-04T05:15:11.048Z,98545.69
2022-12-04T05:17:39.150Z,98546.10
2022-12-04T05:20:07.800Z,98545.64
2022-12-04T05:22:37.198Z,98541.42
2022-12-04T05:25:05.583Z,98543.12
2022-12-04T05:27:33.620Z,98542.04
2022-12-04T05:30:01.680Z,98544.89
2022-12-04T05:32:30.834Z,98545.66
2022-12-04T05:35:01.671Z,98548.83
2022-12-04T05:37:37.139Z,98552.70
2022-12-04T05:40:06.851Z,98552.94
2022-12-04T05:42:34.843Z,98551.89
2022-12-04T05:45:02.926Z,98551.05
2022-12-04T05:47:32.170Z,98550.59
2022-12-04T05:50:00.450Z,98545.77
2022-12-04T05:52:28.845Z,98540.20
2022-12-04T05:54:56.883Z,98538.60
2022-12-04T05:57:25.667Z,98537.73
2022-12-04T05:59:54.874Z,98547.02
2022-12-04T06:02:24.550Z,98553.23
2022-12-04T06:04:52.592Z,98562.38
2022-12-04T06:07:20.585Z,98556.36
2022-12-04T06:09:48.576Z,98552.29
2022-12-04T06:12:16.541Z,98560.13
2022-12-04T06:14:44.496Z,98561.40
2022-12-04T06:17:12.435Z,98560.09
2022-12-04T06:19:40.393Z,98565.07
2022-12-04T06:22:08.410Z,98567.77
2022-12-04T06:24:38.625Z,98574.53
2022-12-04T06:29:56.114Z,98576.84
2022-12-04T06:32:24.398Z,98574.64
2022-12-04T06:34:54.195Z,98578.15
2022-12-04T06:37:24.632Z,98575.73
2022-12-04T06:39:52.829Z,98571.52
2022-12-04T06:42:22.721Z,98569.35
2022-12-04T06:44:50.714Z,98566.30
2022-12-04T06:47:18.844Z,98575.96
2022-12-04T06:49:50.532Z,98570.51
2022-12-04T06:52:18.556Z,98570.21
2022-12-04T06:54:46.484Z,98577.92
2022-12-04T06:57:14.524Z,98583.46
2022-12-04T06:59:42.569Z,98585.36
2022-12-04T07:02:11.093Z,98580.95
2022-12-04T07:04:39.281Z,98577.39
2022-12-04T07:07:10.277Z,98572.49
2022-12-04T07:09:38.200Z,98574.96
2022-12-04T07:12:07.029Z,98567.96
2022-12-04T07:14:36.363Z,98571.33
2022-12-04T07:17:04.567Z,98577.10
2022-12-04T07:19:32.741Z,98582.27
2022-12-04T07:22:01.060Z,98576.34
2022-12-04T07:24:29.135Z,98570.59
2022-12-04T07:26:57.106Z,98564.55
2022-12-04T07:29:25.075Z,98569.17
2022-12-04T07:31:53.389Z,98569.25
2022-12-04T07:34:23.261Z,98565.69
2022-12-04T07:36:51.270Z,98567.52
2022-12-04T07:39:19.191Z,98568.73
2022-12-04T07:41:47.163Z,98563.04
2022-12-04T07:44:15.232Z,98559.44
2022-12-04T07:46:43.574Z,98554.27
2022-12-04T07:49:15.396Z,98548.23
2022-12-04T07:51:43.801Z,98549.70
2022-12-04T07:54:12.813Z,98551.70
2022-12-04T07:56:40.832Z,98548.36
2022-12-04T07:59:08.819Z,98545.81
2022-12-04T08:01:36.938Z,98545.35
2022-12-04T08:04:05.210Z,98544.87
2022-12-04T08:06:35.257Z,98545.94
2022-12-04T08:09:09.581Z,98543.55
2022-12-04T08:11:39.064Z,98544.27
2022-12-04T08:14:09.016Z,98540.23
2022-12-04T08:16:37.988Z,98537.42
2022-12-04T08:19:06.370Z,98537.85
2022-12-04T08:21:34.465Z,98538.96
2022-12-04T08:24:02.907Z,98546.91
2022-12-04T08:26:33.571Z,98546.35
2022-12-04T08:29:03.029Z,98542.53
2022-12-04T08:31:33.109Z,98530.36
2022-12-04T08:34:03.633Z,98534.72
2022-12-04T08:36:32.419Z,98532.86
2022-12-04T08:39:00.761Z,98525.26
2022-12-04T08:41:31.259Z,98525.98
2022-12-04T08:43:59.759Z,98522.52
2022-12-04T08:46:28.797Z,98517.45
2022-12-04T08:48:57.885Z,98514.62
2022-12-04T08:51:29.306Z,98509.38
2022-12-04T08:54:05.578Z,98505.02
2022-12-04T08:56:34.690Z,98503.56
2022-12-04T08:59:03.949Z,98501.85
2022-12-04T09:01:33.531Z,98498.88
2022-12-04T09:04:02.199Z,98499.70
2022-12-04T09:06:30.870Z,98500.91
2022-12-04T09:09:01.127Z,98498.52
2022-12-04T09:11:30.598Z,98488.69
2022-12-04T09:13:59.297Z,98479.14
2022-12-04T09:16:27.773Z,98476.15
2022-12-04T09:18:57.599Z,98479.77
2022-12-04T09:21:26.056Z,98486.04
2022-12-04T09:23:54.465Z,98490.20
2022-12-04T09:26:29.054Z,98488.34
2022-12-04T09:29:00.767Z,98487.70
2022-12-04T09:31:30.119Z,98492.34
2022-12-04T09:33:59.752Z,98493.27
2022-12-04T09:36:28.752Z,98494.02
2022-12-04T09:38:57.948Z,98494.15
2022-12-04T09:41:50.933Z,98496.98
2022-12-04T09:44:29.761Z,98494.40
2022-12-04T09:46:57.707Z,98496.11
2022-12-04T09:49:31.087Z,98494.48
2022-12-04T09:52:02.538Z,98500.73
2022-12-04T09:54:38.603Z,98495.83
2022-12-04T09:57:24.404Z,98483.69
2022-12-04T09:59:53.400Z,98470.80
2022-12-04T10:02:42.895Z,98464.83
2022-12-04T10:05:22.130Z,98467.14
2022-12-04T10:07:50.127Z,98471.79
2022-12-04T10:10:35.446Z,98480.80
2022-12-04T10:13:30.128Z,98488.08
2022-12-04T10:16:19.924Z,98480.25
2022-12-04T10:19:03.322Z,98475.90
2022-12-04T10:21:51.257Z,98475.63
2022-12-04T10:25:01.364Z,98467.02
2022-12-04T10:27:40.127Z,98455.48
2022-12-04T10:30:19.380Z,98457.59
2022-12-04T10:32:52.218Z,98452.77
2022-12-04T10:35:22.963Z,98446.82
2022-12-04T10:37:56.972Z,98443.15
2022-12-04T10:40:48.933Z,98446.21
2022-12-04T10:43:32.628Z,98442.64
2022-12-04T10:46:00.627Z,98434.77
2022-12-04T10:48:36.888Z,98435.59
2022-12-04T10:51:05.000Z,98432.42
2022-12-04T10:53:37.194Z,98427.53
2022-12-04T10:56:14.795Z,98421.04
2022-12-04T10:58:55.069Z,98414.46
2022-12-04T11:01:23.607Z,98406.46
2022-12-04T11:04:06.027Z,98404.57
2022-12-04T11:06:35.095Z,98402.36
2022-12-04T11:09:04.650Z,98392.14
2022-12-04T11:11:35.903Z,98388.27
2022-12-04T11:14:19.157Z,98388.12
2022-12-04T11:16:50.891Z,98389.13
2022-12-04T11:19:28.618Z,98380.77
2022-12-04T11:22:04.308Z,98371.64
2022-12-04T11:24:35.934Z,98369.67
2022-12-04T11:27:06.876Z,98366.33
2022-12-04T11:29:43.564Z,98369.70
2022-12-04T11:32:23.255Z,98364.08
2022-12-04T11:34:54.215Z,98359.31
2022-12-04T11:37:28.170Z,98357.33
2022-12-04T11:39:56.618Z,98363.30
2022-12-04T11:42:27.135Z,98361.77
2022-12-04T11:45:03.090Z,98364.17
2022-12-04T11:47:33.310Z,98366.39
2022-12-04T11:50:01.879Z,98364.80
2022-12-04T11:52:43.841Z,98359.42
2022-12-04T11:55:22.312Z,98350.46
2022-12-04T11:58:04.685Z,98350.67
2022-12-04T12:00:38.188Z,98349.84
2022-12-04T12:03:28.129Z,98348.16
2022-12-04T12:06:40.162Z,98345.91
2022-12-04T12:09:15.534Z,98337.11
2022-12-04T12:11:49.518Z,98336.83
2022-12-04T12:14:41.801Z,98333.27
2022-12-04T12:17:23.973Z,98331.73
2022-12-04T12:20:21.344Z,98332.14
2022-12-04T12:22:52.344Z,98327.01
2022-12-04T12:25:38.500Z,98325.52
2022-12-04T12:28:21.383Z,98326.48
2022-12-04T12:31:20.214Z,98318.77
2022-12-04T12:33:59.297Z,98314.89
2022-12-04T12:36:41.353Z,98308.86
2022-12-04T12:39:25.147Z,98307.70
2022-12-04T12:41:57.537Z,98311.05
2022-12-04T12:44:37.472Z,98314.42
2022-12-04T12:47:14.652Z,98313.63
2022-12-04T12:49:55.717Z,98312.29
2022-12-04T12:52:39.665Z,98310.06
2022-12-04T12:55:20.653Z,98306.62
2022-12-04T12:58:10.706Z,98303.58
2022-12-04T13:00:45.117Z,98303.08
2022-12-04T13:03:34.748Z,98304.32
2022-12-04T13:06:10.753Z,98304.25
2022-12-04T13:09:07.186Z,98304.06
2022-12-04T13:11:37.222Z,98304.16
2022-12-04T13:14:06.473Z,98305.95
2022-12-04T13:16:52.844Z,98304.85
2022-12-04T13:19:27.149Z,98296.84
2022-12-04T13:22:16.672Z,98297.04
2022-12-04T13:25:13.209Z,98299.71
2022-12-04T13:28:18.968Z,98294.94
2022-12-04T13:31:14.971Z,98294.60
2022-12-04T13:34:20.425Z,98291.11
2022-12-04T13:37:06.879Z,98290.97
2022-12-04T13:40:26.756Z,98291.02
2022-12-04T13:43:17.336Z,98288.63
2022-12-04T13:45:49.711Z,98288.02
2022-12-04T13:48:50.368Z,98289.48
2022-12-04T13:51:26.160Z,98291.19
2022-12-04T13:54:12.424Z,98290.77
2022-12-04T13:56:45.894Z,98292.70
2022-12-04T13:59:32.499Z,98295.77
2022-12-04T14:02:08.111Z,98293.83
2022-12-04T14:04:56.930Z,98290.70
2022-12-04T14:07:34.431Z,98289.98
2022-12-04T14:10:06.618Z,98291.02
2022-12-04T14:12:39.565Z,98292.73
2022-12-04T14:15:20.183Z,98286.66
2022-12-04T14:18:17.838Z,98286.83
2022-12-04T14:20:57.439Z,98292.32
2022-12-04T14:23:34.144Z,98297.87
2022-12-04T14:26:05.271Z,98300.73
2022-12-04T14:28:38.676Z,98298.38
2022-12-04T14:31:32.253Z,98293.27
2022-12-04T14:34:23.967Z,98295.46
2022-12-04T14:36:54.889Z,98305.48
2022-12-04T14:39:33.362Z,98299.70
2022-12-04T14:42:13.375Z,98297.94
2022-12-04T14:44:44.292Z,98295.27
2022-12-04T14:47:28.948Z,98296.98
2022-12-04T14:50:21.692Z,98300.80
2022-12-04T14:52:59.622Z,98305.08
2022-12-04T14:55:40.808Z,98304.31
2022-12-04T14:58:36.759Z,98307.11
2022-12-04T15:01:34.264Z,98316.09
2022-12-04T15:04:14.451Z,98323.67
2022-12-04T15:06:47.749Z,98330.54
2022-12-04T15:09:40.387Z,98335.07
2022-12-04T15:12:35.845Z,98334.43
2022-12-04T15:15:13.267Z,98338.67
2022-12-04T15:17:41.325Z,98330.37
2022-12-04T15:20:17.373Z,98332.38
2022-12-04T15:22:47.705Z,98331.16
2022-12-04T15:25:33.102Z,98336.36
2022-12-04T15:28:08.701Z,98339.81
2022-12-04T15:30:40.716Z,98343.19
2022-12-04T15:33:20.735Z,98343.48
2022-12-04T15:35:59.520Z,98341.23
2022-12-04T15:38:28.122Z,98345.84
2022-12-04T15:41:00.050Z,98345.38
2022-12-04T15:43:39.047Z,98342.16
2022-12-04T15:46:22.483Z,98340.90
2022-12-04T15:48:50.686Z,98339.80
2022-12-04T15:51:27.253Z,98343.38
2022-12-04T15:53:57.293Z,98346.41
2022-12-04T15:56:25.891Z,98347.36
2022-12-04T15:58:57.583Z,98343.79
2022-12-04T16:01:26.216Z,98349.36
2022-12-04T16:03:56.370Z,98347.24
2022-12-04T16:06:33.450Z,98344.80
2022-12-04T16:09:21.991Z,98342.54
2022-12-04T16:11:59.522Z,98341.02
2022-12-04T16:14:28.468Z,98330.30
2022-12-04T16:17:05.789Z,98329.55
2022-12-04T16:19:40.813Z,98331.41
2022-12-04T16:22:19.343Z,98336.27
2022-12-04T16:24:48.438Z,98336.08
2022-12-04T16:27:21.740Z,98336.52
2022-12-04T16:29:51.900Z,98335.25
2022-12-04T16:32:25.799Z,98338.88
2022-12-04T16:34:53.955Z,98340.25
2022-12-04T16:37:23.700Z,98341.42
2022-12-04T16:39:51.815Z,98346.45
2022-12-04T16:42:29.955Z,98344.10
2022-12-04T16:44:58.457Z,98344.88
2022-12-04T16:47:26.822Z,98341.42
2022-12-04T16:49:55.586Z,98344.30
2022-12-04T16:52:24.327Z,98342.89
2022-12-04T16:54:52.635Z,98340.72
2022-12-04T16:57:22.231Z,98339.30
2022-12-04T16:59:50.479Z,98338.05
2022-12-04T17:02:26.291Z,98337.23
2022-12-04T17:04:57.888Z,98339.90
2022-12-04T17:07:27.044Z,98336.53
2022-12-04T17:09:55.042Z,98337.00
2022-12-04T17:12:23.140Z,98339.19
2022-12-04T17:14:51.226Z,98334.61
2022-12-04T17:17:19.494Z,98337.17
2022-12-04T17:19:50.382Z,98337.96
2022-12-04T17:22:23.760Z,98336.13
2022-12-04T17:24:56.153Z,98338.10
2022-12-04T17:27:24.700Z,98341.91
2022-12-04T17:29:52.878Z,98342.99
2022-12-04T17:32:20.824Z,98343.68
2022-12-04T17:34:49.248Z,98346.69
2022-12-04T17:37:17.370Z,98352.61
2022-12-04T17:39:46.152Z,98351.08
2022-12-04T17:42:18.714Z,98356.45
2022-12-04T17:44:46.966Z,98351.12
2022-12-04T17:47:18.354Z,98351.48
2022-12-04T17:49:46.687Z,98353.99
2022-12-04T17:52:14.785Z,98356.20
2022-12-04T17:54:44.844Z,98354.86
2022-12-04T17:57:14.642Z,98351.29
2022-12-04T17:59:43.627Z,98356.05
2022-12-04T18:02:13.290Z,98353.32
2022-12-04T18:04:42.292Z,98353.05
2022-12-04T18:07:10.450Z,98347.72
2022-12-04T18:09:39.609Z,98347.39
2022-12-04T18:12:10.026Z,98344.57
2022-12-04T18:14:39.068Z,98353.77
2022-12-04T18:17:07.090Z,98357.04
2022-12-04T18:19:35.440Z,98360.48
2022-12-04T18:22:04.541Z,98360.35
2022-12-04T18:24:33.263Z,98362.40
2022-12-04T18:27:04.421Z,98361.45
2022-12-04T18:29:32.889Z,98364.20
2022-12-04T18:32:01.154Z,98363.30
2022-12-04T18:34:29.396Z,98369.09
2022-12-04T18:36:57.452Z,98364.27
2022-12-04T18:39:26.326Z,98361.98
2022-12-04T18:41:56.760Z,98361.80
2022-12-04T18:44:26.190Z,98361.42
2022-12-04T18:46:54.303Z,98367.98
2022-12-04T18:49:22.305Z,98367.98
2022-12-04T18:51:50.664Z,98369.80
2022-12-04T18:54:21.826Z,98366.70
2022-12-04T18:56:50.397Z,98365.27
2022-12-04T18:59:23.100Z,98368.51
2022-12-04T19:01:53.405Z,98366.65
2022-12-04T19:04:24.512Z,98370.88
2022-12-04T19:06:55.780Z,98367.95
2022-12-04T19:12:26.423Z,98369.13
2022-12-04T19:14:54.469Z,98364.08
2022-12-04T19:17:22.597Z,98370.77
2022-12-04T19:19:51.117Z,98366.52
2022-12-04T19:22:19.428Z,98366.13
2022-12-04T19:24:47.594Z,98369.61
2022-12-04T19:27:15.647Z,98373.73
2022-12-04T19:29:44.267Z,98376.98
2022-12-04T19:32:12.542Z,98377.33
2022-12-04T19:34:41.102Z,98377.85
2022-12-04T19:37:09.157Z,98385.10
2022-12-04T19:39:37.327Z,98389.03
2022-12-04T19:42:05.853Z,98387.38
2022-12-04T19:44:50.136Z,98385.79
2022-12-04T19:47:19.612Z,98393.39
2022-12-04T19:49:48.163Z,98398.76
2022-12-04T19:52:16.707Z,98395.92
2022-12-04T19:54:46.049Z,98399.59
2022-12-04T19:57:15.415Z,98400.52
2022-12-04T19:59:46.640Z,98402.52
2022-12-04T20:02:15.690Z,98404.80
2022-12-04T20:04:44.425Z,98407.04
2022-12-04T20:07:13.486Z,98414.77
2022-12-04T20:09:46.027Z,98416.24
2022-12-04T20:12:17.072Z,98417.75
2022-12-04T20:14:45.159Z,98420.48
2022-12-04T20:17:13.265Z,98421.11
2022-12-04T20:19:41.330Z,98422.73
2022-12-04T20:22:09.352Z,98424.77
2022-12-04T20:24:37.554Z,98425.26
2022-12-04T20:27:07.579Z,98430.54
2022-12-04T20:29:35.607Z,98429.33
2022-12-04T20:32:03.672Z,98426.30
2022-12-04T20:34:31.752Z,98424.78
2022-12-04T20:37:00.253Z,98426.80
2022-12-04T20:39:28.269Z,98425.83
2022-12-04T20:41:56.230Z,98424.16
2022-12-04T20:44:24.173Z,98423.98
2022-12-04T20:46:53.388Z,98424.55
2022-12-04T20:49:22.664Z,98428.67
2022-12-04T20:51:52.470Z,98422.85
2022-12-04T20:54:22.227Z,98423.38
2022-12-04T20:56:52.963Z,98429.23
2022-12-04T20:59:23.340Z,98435.27
2022-12-04T21:01:52.570Z,98431.71
2022-12-04T21:04:22.057Z,98429.18
2022-12-04T21:06:50.094Z,98437.95
2022-12-04T21:09:24.343Z,98439.48
2022-12-04T21:11:54.834Z,98438.58
2022-12-04T21:14:50.085Z,98437.30
2022-12-04T21:17:19.669Z,98437.45
2022-12-04T21:19:50.196Z,98438.68
2022-12-04T21:22:19.330Z,98436.20
2022-12-04T21:24:49.137Z,98439.08
2022-12-04T21:27:21.036Z,98439.35
2022-12-04T21:29:50.461Z,98437.38
2022-12-04T21:32:20.405Z,98443.90
2022-12-04T21:34:49.036Z,98444.21
2022-12-04T21:37:18.057Z,98444.20
2022-12-04T21:39:46.418Z,98445.19
2022-12-04T21:42:33.043Z,98442.91
2022-12-04T21:45:04.221Z,98443.08
2022-12-04T21:47:32.989Z,98444.30
2022-12-04T21:50:01.170Z,98445.54
2022-12-04T21:52:29.409Z,98443.30
2022-12-04T21:54:57.958Z,98441.73
2022-12-04T21:57:27.898Z,98446.41
2022-12-04T21:59:56.189Z,98444.33
2022-12-04T22:02:24.771Z,98439.73
2022-12-04T22:04:52.922Z,98434.45
2022-12-04T22:07:21.045Z,98437.13
2022-12-04T22:09:50.036Z,98431.23
2022-12-04T22:12:49.098Z,98432.61
2022-12-04T22:15:07.049Z,98436.76
2022-12-04T22:17:35.044Z,98437.11
2022-12-04T22:20:03.475Z,98432.08
2022-12-04T22:22:31.604Z,98431.64
2022-12-04T22:25:01.454Z,98427.91
2022-12-04T22:27:29.698Z,98429.63
2022-12-04T22:29:57.838Z,98435.04
2022-12-04T22:32:25.727Z,98440.18
2022-12-04T22:34:53.749Z,98444.77
2022-12-04T22:37:21.684Z,98445.48
2022-12-04T22:39:49.802Z,98447.08
2022-12-04T22:42:17.802Z,98449.60
2022-12-04T22:44:45.974Z,98449.02
2022-12-04T22:47:16.637Z,98447.85
2022-12-04T22:49:44.651Z,98449.39
2022-12-04T22:52:13.030Z,98448.95
2022-12-04T22:54:41.071Z,98448.58
2022-12-04T22:57:09.037Z,98448.15
2022-12-04T22:59:36.924Z,98447.08
2022-12-04T23:02:04.977Z,98449.40
2022-12-04T23:04:33.037Z,98450.06
2022-12-04T23:07:00.970Z,98456.19
2022-12-04T23:09:29.127Z,98458.98
2022-12-04T23:11:57.506Z,98461.00
2022-12-04T23:14:27.163Z,98457.63
2022-12-04T23:16:56.266Z,98450.77
2022-12-04T23:19:24.542Z,98450.02
2022-12-04T23:21:56.833Z,98445.98
2022-12-04T23:24:26.057Z,98448.45
2022-12-04T23:26:54.155Z,98451.48
2022-12-04T23:29:51.348Z,98450.38
2022-12-04T23:32:10.269Z,98446.06
2022-12-04T23:34:38.748Z,98447.44
2022-12-04T23:37:06.666Z,98455.66
2022-12-04T23:39:34.768Z,98452.86
2022-12-04T23:42:03.599Z,98455.72
2022-12-04T23:44:31.685Z,98453.79
2022-12-04T23:46:59.698Z,98456.23
2022-12-04T23:49:28.470Z,98458.14
2022-12-04T23:51:56.440Z,98458.38
2022-12-04T23:54:24.348Z,98458.63
2022-12-04T23:56:52.244Z,98458.02
2022-12-04T23:59:22.056Z,98461.05
